createdAt,value
2024-01-10T00:01:27.795Z,34.50
2024-01-10T00:03:56.228Z,33.07
2024-01-10T00:06:27.036Z,32.23
2024-01-10T00:08:54.657Z,36.07
2024-01-10T00:11:22.259Z,35.07
2024-01-10T00:13:49.372Z,30.73
2024-01-10T00:16:16.953Z,35.60
2024-01-10T00:18:44.163Z,36.73
2024-01-10T00:21:12.798Z,32.07
2024-01-10T00:23:39.924Z,34.43
2024-01-10T00:26:07.567Z,33.63
2024-01-10T00:28:34.757Z,30.60
2024-01-10T00:31:02.314Z,32.77
2024-01-10T00:33:29.765Z,36.23
2024-01-10T00:35:57.300Z,32.37
2024-01-10T00:38:24.514Z,31.17
2024-01-10T00:40:52.017Z,31.83
2024-01-10T00:43:19.262Z,29.70
2024-01-10T00:45:46.772Z,33.87
2024-01-10T00:48:13.979Z,31.83
2024-01-10T00:50:41.727Z,31.20
2024-01-10T00:53:08.910Z,33.00
2024-01-10T00:55:36.321Z,35.43
2024-01-10T00:58:03.634Z,38.73
2024-01-10T01:00:31.055Z,37.43
2024-01-10T01:02:59.380Z,34.53
2024-01-10T01:05:26.941Z,38.43
2024-01-10T01:07:54.197Z,37.67
2024-01-10T01:10:21.716Z,36.63
2024-01-10T01:12:49.072Z,37.53
2024-01-10T01:15:16.565Z,39.20
2024-01-10T01:17:43.732Z,38.07
2024-01-10T01:20:11.477Z,32.93
2024-01-10T01:22:38.712Z,32.57
2024-01-10T01:25:06.597Z,34.67
2024-01-10T01:27:33.729Z,33.80
2024-01-10T01:30:01.377Z,33.73
2024-01-10T01:32:28.693Z,35.93
2024-01-10T01:34:56.264Z,34.00
2024-01-10T01:37:23.514Z,33.80
2024-01-10T01:39:51.116Z,34.87
2024-01-10T01:42:18.206Z,34.40
2024-01-10T01:44:45.666Z,32.50
2024-01-10T01:47:13.046Z,33.30
2024-01-10T01:49:40.717Z,31.97
2024-01-10T01:52:08.451Z,34.70
2024-01-10T01:54:36.406Z,35.10
2024-01-10T01:57:03.916Z,33.63
2024-01-10T01:59:31.538Z,33.40
2024-01-10T02:02:02.260Z,34.13
2024-01-10T02:04:31.725Z,34.57
2024-01-10T02:06:59.120Z,35.13
2024-01-10T02:09:26.787Z,36.30
2024-01-10T02:11:54.620Z,38.20
2024-01-10T02:14:22.613Z,37.10
2024-01-10T02:16:49.854Z,38.63
2024-01-10T02:19:24.530Z,41.63
2024-01-10T02:21:51.698Z,37.17
2024-01-10T02:24:19.427Z,40.93
2024-01-10T02:26:47.161Z,36.27
2024-01-10T02:29:14.657Z,36.03
2024-01-10T02:31:41.869Z,43.40
2024-01-10T02:34:09.558Z,45.37
2024-01-10T02:36:36.834Z,43.63
2024-01-10T02:39:04.295Z,40.40
2024-01-10T02:41:31.426Z,37.70
2024-01-10T02:44:00.344Z,36.87
2024-01-10T02:46:30.370Z,37.93
2024-01-10T02:48:58.941Z,36.83
2024-01-10T02:51:28.777Z,40.47
2024-01-10T02:53:56.227Z,42.40
2024-01-10T02:56:23.581Z,38.27
2024-01-10T02:58:51.257Z,42.83
2024-01-10T03:01:18.485Z,44.40
2024-01-10T03:03:46.015Z,44.50
2024-01-10T03:06:13.356Z,43.10
2024-01-10T03:08:40.961Z,41.43
2024-01-10T03:11:08.195Z,39.77
2024-01-10T03:13:35.778Z,47.10
2024-01-10T03:16:03.022Z,41.03
2024-01-10T03:18:30.629Z,41.50
2024-01-10T03:20:57.990Z,39.07
2024-01-10T03:23:25.601Z,39.07
2024-01-10T03:25:52.882Z,41.77
2024-01-10T03:28:20.619Z,39.17
2024-01-10T03:30:47.959Z,37.77
2024-01-10T03:33:16.725Z,39.57
2024-01-10T03:35:44.711Z,41.07
2024-01-10T03:38:12.177Z,38.83
2024-01-10T03:40:39.456Z,39.50
2024-01-10T03:43:07.028Z,37.97
2024-01-10T03:45:34.155Z,40.70
2024-01-10T03:48:01.703Z,41.53
2024-01-10T03:50:28.932Z,41.10
2024-01-10T03:52:56.543Z,41.50
2024-01-10T03:55:23.765Z,41.57
2024-01-10T03:57:51.236Z,42.37
2024-01-10T04:00:19.199Z,44.77
2024-01-10T04:02:46.720Z,46.77
2024-01-10T04:05:14.807Z,48.97
2024-01-10T04:07:43.703Z,42.07
2024-01-10T04:10:12.495Z,40.67
2024-01-10T04:12:39.971Z,43.37
2024-01-10T04:15:08.138Z,45.67
2024-01-10T04:17:35.823Z,45.57
2024-01-10T04:20:04.312Z,48.33
2024-01-10T04:22:32.289Z,48.27
2024-01-10T04:25:00.902Z,46.77
2024-01-10T04:27:28.683Z,47.13
2024-01-10T04:29:55.948Z,45.97
2024-01-10T04:32:23.701Z,51.57
2024-01-10T04:34:51.265Z,48.73
2024-01-10T04:37:19.689Z,43.60
2024-01-10T04:39:47.088Z,41.70
2024-01-10T04:42:14.697Z,44.73
2024-01-10T04:44:41.892Z,46.63
2024-01-10T04:47:09.542Z,48.30
2024-01-10T04:49:36.883Z,49.27
2024-01-10T04:52:04.611Z,51.90
2024-01-10T04:54:31.749Z,45.57
2024-01-10T04:56:59.238Z,42.67
2024-01-10T04:59:26.502Z,43.27
2024-01-10T05:01:54.231Z,53.20
2024-01-10T05:04:21.469Z,51.87
2024-01-10T05:06:48.927Z,46.40
2024-01-10T05:09:16.204Z,58.73
2024-01-10T05:11:45.078Z,50.20
2024-01-10T05:14:12.449Z,46.93
2024-01-10T05:16:40.173Z,51.77
2024-01-10T05:19:07.456Z,53.40
2024-01-10T05:21:35.362Z,51.17
2024-01-10T05:24:02.533Z,48.40
2024-01-10T05:26:30.529Z,51.27
2024-01-10T05:28:57.829Z,68.43
2024-01-10T05:31:25.287Z,65.57
2024-01-10T05:33:52.751Z,55.57
2024-01-10T05:36:24.114Z,53.87
2024-01-10T05:38:51.599Z,56.20
2024-01-10T05:41:19.215Z,61.83
2024-01-10T05:43:46.425Z,67.63
2024-01-10T05:46:13.890Z,71.13
2024-01-10T05:48:41.046Z,71.50
2024-01-10T05:51:08.597Z,61.90
2024-01-10T05:53:35.841Z,68.67
2024-01-10T05:56:03.392Z,70.40
2024-01-10T05:58:30.707Z,62.70
2024-01-10T06:00:58.211Z,59.70
2024-01-10T06:03:26.140Z,65.20
2024-01-10T06:05:53.796Z,68.60
2024-01-10T06:08:22.071Z,66.20
2024-01-10T06:10:49.715Z,63.57
2024-01-10T06:13:16.912Z,58.83
2024-01-10T06:15:44.517Z,62.40
2024-01-10T06:18:11.721Z,67.10
2024-01-10T06:20:40.507Z,60.40
2024-01-10T06:23:07.821Z,75.60
2024-01-10T06:25:35.304Z,69.43
2024-01-10T06:28:02.545Z,64.77
2024-01-10T06:30:29.985Z,69.63
2024-01-10T06:32:57.228Z,59.73
2024-01-10T06:35:24.940Z,61.13
2024-01-10T06:37:52.145Z,67.87
2024-01-10T06:40:19.741Z,63.57
2024-01-10T06:42:46.881Z,58.50
2024-01-10T06:45:15.426Z,63.87
2024-01-10T06:47:42.924Z,61.97
2024-01-10T06:50:11.082Z,64.33
2024-01-10T06:52:38.828Z,74.50
2024-01-10T06:55:07.267Z,75.53
2024-01-10T06:57:34.442Z,68.97
2024-01-10T07:00:04.756Z,66.70
2024-01-10T07:02:33.707Z,81.47
2024-01-10T07:05:01.257Z,71.70
2024-01-10T07:07:28.478Z,78.80
2024-01-10T07:09:55.876Z,73.83
2024-01-10T07:12:23.045Z,75.53
2024-01-10T07:14:50.492Z,76.13
2024-01-10T07:17:17.703Z,72.83
2024-01-10T07:19:47.441Z,63.67
2024-01-10T07:22:14.600Z,68.17
2024-01-10T07:24:42.484Z,62.60
2024-01-10T07:27:09.637Z,65.97
2024-01-10T07:29:37.164Z,61.63
2024-01-10T07:32:05.000Z,67.07
2024-01-10T07:34:32.624Z,76.43
2024-01-10T07:36:59.870Z,78.87
2024-01-10T07:39:27.345Z,74.57
2024-01-10T07:41:54.947Z,72.60
2024-01-10T07:44:23.106Z,74.20
2024-01-10T07:46:52.212Z,68.63
2024-01-10T07:49:20.040Z,59.13
2024-01-10T07:51:47.840Z,62.77
2024-01-10T07:54:16.344Z,66.97
2024-01-10T07:56:44.265Z,64.00
2024-01-10T07:59:14.618Z,64.13
2024-01-10T08:01:42.338Z,61.50
2024-01-10T08:04:10.633Z,70.50
2024-01-10T08:06:39.180Z,76.93
2024-01-10T08:09:06.812Z,70.20
2024-01-10T08:11:36.466Z,63.20
2024-01-10T08:14:04.628Z,72.63
2024-01-10T08:16:33.824Z,71.70
2024-01-10T08:19:02.086Z,68.93
2024-01-10T08:21:29.386Z,64.90
2024-01-10T08:23:57.538Z,72.33
2024-01-10T08:26:25.001Z,73.60
2024-01-10T08:28:52.730Z,72.93
2024-01-10T08:31:20.837Z,68.53
2024-01-10T08:33:48.431Z,71.90
2024-01-10T08:36:15.828Z,77.87
2024-01-10T08:38:43.531Z,73.57
2024-01-10T08:41:13.044Z,70.07
2024-01-10T08:43:40.826Z,62.47
2024-01-10T08:46:09.209Z,77.70
2024-01-10T08:48:37.917Z,73.60
2024-01-10T08:51:05.419Z,73.10
2024-01-10T08:53:33.687Z,75.90
2024-01-10T08:56:00.985Z,65.40
2024-01-10T08:58:28.556Z,68.70
2024-01-10T09:00:56.141Z,61.57
2024-01-10T09:03:24.796Z,69.47
2024-01-10T09:06:01.700Z,68.00
2024-01-10T09:08:36.081Z,63.47
2024-01-10T09:11:04.449Z,67.73
2024-01-10T09:13:32.026Z,70.70
2024-01-10T09:15:59.220Z,61.15
2024-01-10T09:18:26.801Z,65.87
2024-01-10T09:20:54.476Z,66.55
2024-01-10T09:23:22.691Z,68.93
2024-01-10T09:25:50.186Z,64.28
2024-01-10T09:28:18.021Z,72.35
2024-01-10T09:30:45.287Z,65.28
2024-01-10T09:33:13.734Z,62.45
2024-01-10T09:35:41.019Z,73.82
2024-01-10T09:38:08.556Z,63.92
2024-01-10T09:40:35.835Z,65.72
2024-01-10T09:43:03.993Z,69.45
2024-01-10T09:45:36.372Z,67.30
2024-01-10T09:48:06.074Z,61.10
2024-01-10T09:50:33.484Z,73.63
2024-01-10T09:53:10.816Z,64.75
2024-01-10T09:55:38.577Z,69.85
2024-01-10T09:58:11.261Z,63.40
2024-01-10T10:00:39.141Z,59.33
2024-01-10T10:03:09.798Z,62.45
2024-01-10T10:05:38.854Z,65.55
2024-01-10T10:08:11.287Z,61.42
2024-01-10T10:10:44.284Z,62.55
2024-01-10T10:13:24.634Z,57.50
2024-01-10T10:16:01.240Z,63.13
2024-01-10T10:18:29.751Z,58.30
2024-01-10T10:21:14.518Z,59.03
2024-01-10T10:23:44.393Z,61.22
2024-01-10T10:26:21.429Z,65.43
2024-01-10T10:28:50.121Z,60.00
2024-01-10T10:31:19.019Z,60.75
2024-01-10T10:33:51.784Z,64.40
2024-01-10T10:36:22.809Z,68.30
2024-01-10T10:38:50.711Z,60.20
2024-01-10T10:41:19.776Z,56.17
2024-01-10T10:43:49.311Z,57.47
2024-01-10T10:46:17.496Z,59.22
2024-01-10T10:48:45.826Z,67.22
2024-01-10T10:51:20.250Z,63.85
2024-01-10T10:53:49.469Z,69.03
2024-01-10T10:56:17.315Z,63.08
2024-01-10T10:58:45.847Z,59.90
2024-01-10T11:01:14.981Z,64.60
2024-01-10T11:03:48.615Z,60.05
2024-01-10T11:06:17.685Z,58.20
2024-01-10T11:08:55.693Z,55.97
2024-01-10T11:11:57.629Z,54.15
2024-01-10T11:14:37.758Z,56.80
2024-01-10T11:17:28.317Z,54.60
2024-01-10T11:20:38.408Z,56.83
2024-01-10T11:23:56.867Z,58.65
2024-01-10T11:26:24.382Z,58.50
2024-01-10T11:28:52.391Z,59.53
2024-01-10T11:31:30.704Z,59.47
2024-01-10T11:34:02.583Z,58.13
2024-01-10T11:36:30.646Z,50.72
2024-01-10T11:39:07.850Z,52.22
2024-01-10T11:41:37.024Z,48.28
2024-01-10T11:44:13.456Z,47.45
2024-01-10T11:46:42.257Z,47.92
2024-01-10T11:49:15.121Z,52.85
2024-01-10T11:51:51.163Z,53.15
2024-01-10T11:54:41.910Z,47.38
2024-01-10T11:57:22.661Z,43.30
2024-01-10T11:59:54.921Z,44.40
2024-01-10T12:02:24.979Z,43.50
2024-01-10T12:04:52.521Z,47.60
2024-01-10T12:07:21.410Z,44.58
2024-01-10T12:09:49.456Z,44.20
2024-01-10T12:12:17.053Z,44.15
2024-01-10T12:14:45.430Z,42.03
2024-01-10T12:17:13.402Z,42.70
2024-01-10T12:19:40.792Z,43.75
2024-01-10T12:22:09.081Z,43.30
2024-01-10T12:24:47.491Z,44.15
2024-01-10T12:27:18.455Z,39.97
2024-01-10T12:29:48.872Z,39.05
2024-01-10T12:32:20.042Z,40.00
2024-01-10T12:34:47.452Z,50.03
2024-01-10T12:37:15.042Z,48.90
2024-01-10T12:39:42.355Z,48.25
2024-01-10T12:42:10.920Z,47.40
2024-01-10T12:44:38.100Z,51.25
2024-01-10T12:47:05.860Z,46.15
2024-01-10T12:49:33.306Z,46.38
2024-01-10T12:52:00.770Z,52.38
2024-01-10T12:54:27.941Z,46.50
2024-01-10T12:56:56.921Z,46.00
2024-01-10T12:59:24.866Z,46.92
2024-01-10T13:01:52.818Z,50.15
2024-01-10T13:04:20.579Z,48.00
2024-01-10T13:06:48.102Z,50.75
2024-01-10T13:09:15.478Z,47.53
2024-01-10T13:11:43.421Z,46.95
2024-01-10T13:14:11.012Z,51.92
2024-01-10T13:16:46.376Z,52.13
2024-01-10T13:19:21.967Z,53.85
2024-01-10T13:21:49.581Z,51.25
2024-01-10T13:24:16.758Z,55.88
2024-01-10T13:26:44.224Z,56.45
2024-01-10T13:29:11.591Z,57.33
2024-01-10T13:31:40.305Z,57.38
2024-01-10T13:34:08.420Z,58.95
2024-01-10T13:36:35.907Z,56.55
2024-01-10T13:39:05.756Z,56.25
2024-01-10T13:41:33.973Z,55.05
2024-01-10T13:44:01.231Z,55.65
2024-01-10T13:46:28.684Z,56.85
2024-01-10T13:48:55.953Z,58.35
2024-01-10T13:51:23.499Z,56.85
2024-01-10T13:53:50.659Z,56.40
2024-01-10T13:56:18.192Z,54.90
2024-01-10T13:58:45.393Z,58.00
2024-01-10T14:01:12.965Z,58.47
2024-01-10T14:03:40.197Z,60.53
2024-01-10T14:06:08.180Z,58.13
2024-01-10T14:08:35.386Z,55.42
2024-01-10T14:11:02.888Z,54.83
2024-01-10T14:13:30.090Z,55.13
2024-01-10T14:15:57.611Z,54.85
2024-01-10T14:18:24.856Z,55.20
2024-01-10T14:20:52.412Z,52.47
2024-01-10T14:23:20.065Z,58.53
2024-01-10T14:25:47.863Z,66.15
2024-01-10T14:28:15.118Z,60.03
2024-01-10T14:30:43.027Z,55.75
2024-01-10T14:33:10.511Z,54.05
2024-01-10T14:35:38.425Z,55.95
2024-01-10T14:38:05.651Z,56.08
2024-01-10T14:40:33.143Z,55.75
2024-01-10T14:43:00.358Z,56.28
2024-01-10T14:45:27.795Z,57.13
2024-01-10T14:47:55.092Z,57.25
2024-01-10T14:50:24.756Z,54.97
2024-01-10T14:52:52.051Z,54.83
2024-01-10T14:55:19.568Z,60.80
2024-01-10T14:57:46.823Z,57.72
2024-01-10T15:00:15.687Z,54.10
2024-01-10T15:02:43.355Z,52.85
2024-01-10T15:05:13.833Z,49.90
2024-01-10T15:07:41.230Z,48.58
2024-01-10T15:10:09.742Z,50.80
2024-01-10T15:12:36.876Z,53.95
2024-01-10T15:15:04.547Z,62.35
2024-01-10T15:17:31.988Z,58.95
2024-01-10T15:20:00.808Z,58.00
2024-01-10T15:22:28.455Z,57.33
2024-01-10T15:24:55.924Z,55.78
2024-01-10T15:27:23.199Z,52.83
2024-01-10T15:29:56.343Z,53.45
2024-01-10T15:32:27.255Z,49.90
2024-01-10T15:34:54.814Z,55.65
2024-01-10T15:37:21.978Z,61.65
2024-01-10T15:39:49.419Z,55.38
2024-01-10T15:42:17.147Z,69.57
2024-01-10T15:44:44.775Z,64.45
2024-01-10T15:47:12.052Z,75.13
2024-01-10T15:49:41.112Z,70.07
2024-01-10T15:52:08.946Z,75.93
2024-01-10T15:54:39.205Z,78.20
2024-01-10T15:57:07.472Z,83.97
2024-01-10T15:59:35.255Z,84.53
2024-01-10T16:02:03.658Z,91.57
2024-01-10T16:04:31.092Z,81.72
2024-01-10T16:06:58.419Z,79.20
2024-01-10T16:09:25.874Z,104.75
2024-01-10T16:11:53.012Z,97.50
2024-01-10T16:14:21.066Z,94.20
2024-01-10T16:16:48.486Z,86.03
2024-01-10T16:19:16.421Z,85.95
2024-01-10T16:21:44.402Z,88.55
2024-01-10T16:24:12.133Z,78.70
2024-01-10T16:26:39.857Z,72.97
2024-01-10T16:29:08.083Z,69.43
2024-01-10T16:31:36.380Z,67.72
2024-01-10T16:34:04.785Z,65.57
2024-01-10T16:36:32.072Z,72.93
2024-01-10T16:38:59.586Z,70.60
2024-01-10T16:41:26.833Z,72.53
2024-01-10T16:43:54.390Z,78.40
2024-01-10T16:46:21.785Z,75.47
2024-01-10T16:48:49.475Z,78.90
2024-01-10T16:51:17.502Z,79.00
2024-01-10T16:53:45.032Z,86.13
2024-01-10T16:56:12.238Z,84.77
2024-01-10T16:58:39.761Z,79.00
2024-01-10T17:01:06.905Z,75.77
2024-01-10T17:03:34.507Z,66.93
2024-01-10T17:06:02.217Z,67.40
2024-01-10T17:08:29.900Z,62.07
2024-01-10T17:10:57.095Z,69.30
2024-01-10T17:13:24.699Z,66.43
2024-01-10T17:15:51.882Z,66.67
2024-01-10T17:18:19.577Z,74.03
2024-01-10T17:20:46.885Z,66.97
2024-01-10T17:23:14.819Z,63.93
2024-01-10T17:25:41.982Z,68.90
2024-01-10T17:28:09.656Z,65.43
2024-01-10T17:30:37.059Z,61.73
2024-01-10T17:33:10.122Z,68.17
2024-01-10T17:35:38.256Z,65.33
2024-01-10T17:38:07.480Z,65.90
2024-01-10T17:40:34.736Z,68.30
2024-01-10T17:43:02.971Z,78.50
2024-01-10T17:45:30.203Z,68.00
2024-01-10T17:47:57.875Z,67.70
2024-01-10T17:50:26.629Z,60.70
2024-01-10T17:52:54.259Z,62.47
2024-01-10T17:55:21.556Z,71.90
2024-01-10T17:57:48.998Z,69.57
2024-01-10T18:00:16.899Z,69.07
2024-01-10T18:02:44.433Z,65.60
2024-01-10T18:05:11.797Z,67.87
2024-01-10T18:07:39.329Z,66.50
2024-01-10T18:10:06.989Z,60.83
2024-01-10T18:12:34.407Z,63.00
2024-01-10T18:15:02.417Z,73.27
2024-01-10T18:17:30.080Z,95.10
2024-01-10T18:20:26.600Z,91.77
2024-01-10T18:22:54.580Z,95.00
2024-01-10T18:25:21.991Z,101.30
2024-01-10T18:27:49.435Z,94.27
2024-01-10T18:30:16.812Z,94.27
2024-01-10T18:32:44.492Z,103.17
2024-01-10T18:35:11.862Z,102.07
2024-01-10T18:37:39.381Z,99.73
2024-01-10T18:40:06.969Z,99.97
2024-01-10T18:42:34.689Z,99.70
2024-01-10T18:45:01.934Z,97.67
2024-01-10T18:47:29.527Z,99.67
2024-01-10T18:49:59.396Z,102.87
2024-01-10T18:52:27.868Z,96.63
2024-01-10T18:54:55.068Z,96.50
2024-01-10T18:57:22.579Z,107.73
2024-01-10T18:59:49.733Z,117.73
2024-01-10T19:02:18.059Z,111.70
2024-01-10T19:04:45.269Z,109.67
2024-01-10T19:07:12.768Z,115.07
2024-01-10T19:09:39.900Z,118.40
2024-01-10T19:12:07.659Z,116.37
2024-01-10T19:14:36.252Z,106.93
2024-01-10T19:17:04.563Z,105.77
2024-01-10T19:19:37.563Z,106.23
2024-01-10T19:22:05.874Z,105.37
2024-01-10T19:24:33.515Z,106.37
2024-01-10T19:27:01.020Z,108.43
2024-01-10T19:29:28.529Z,106.63
2024-01-10T19:31:55.999Z,108.97
2024-01-10T19:34:32.829Z,114.13
2024-01-10T19:37:00.635Z,114.30
2024-01-10T19:39:27.808Z,126.10
2024-01-10T19:41:55.719Z,125.10
2024-01-10T19:44:22.923Z,127.00
2024-01-10T19:46:50.468Z,123.00
2024-01-10T19:49:17.977Z,127.80
2024-01-10T19:51:46.611Z,122.30
2024-01-10T19:54:14.027Z,120.83
2024-01-10T19:56:41.526Z,123.17
2024-01-10T19:59:08.840Z,124.40
2024-01-10T20:01:36.291Z,120.17
2024-01-10T20:04:03.765Z,113.30
2024-01-10T20:06:31.347Z,125.90
2024-01-10T20:08:58.646Z,123.07
2024-01-10T20:11:26.191Z,124.20
2024-01-10T20:13:53.471Z,118.93
2024-01-10T20:16:20.960Z,121.77
2024-01-10T20:18:48.161Z,120.67
2024-01-10T20:21:16.660Z,112.53
2024-01-10T20:23:48.445Z,110.67
2024-01-10T20:26:16.733Z,113.10
2024-01-10T20:28:44.257Z,110.97
2024-01-10T20:31:12.054Z,107.87
2024-01-10T20:33:39.446Z,109.20
2024-01-10T20:36:07.056Z,100.47
2024-01-10T20:38:34.253Z,101.17
2024-01-10T20:41:02.022Z,95.30
2024-01-10T20:43:29.364Z,91.00
2024-01-10T20:45:56.928Z,91.70
2024-01-10T20:48:24.336Z,88.13
2024-01-10T20:50:52.637Z,82.60
2024-01-10T20:53:19.772Z,80.90
2024-01-10T20:55:47.173Z,76.77
2024-01-10T20:58:15.040Z,72.27
2024-01-10T21:00:42.712Z,74.13
2024-01-10T21:03:09.938Z,79.40
2024-01-10T21:05:37.755Z,76.77
2024-01-10T21:08:05.441Z,73.00
2024-01-10T21:10:32.922Z,72.80
2024-01-10T21:13:00.092Z,70.97
2024-01-10T21:15:27.679Z,68.33
2024-01-10T21:17:55.129Z,87.90
2024-01-10T21:20:22.825Z,81.13
2024-01-10T21:22:50.178Z,80.07
2024-01-10T21:25:17.630Z,84.57
2024-01-10T21:27:44.814Z,89.90
2024-01-10T21:30:12.920Z,79.77
2024-01-10T21:32:40.082Z,75.27
2024-01-10T21:35:07.878Z,70.53
2024-01-10T21:37:35.133Z,70.83
2024-01-10T21:40:02.654Z,69.23
2024-01-10T21:42:30.376Z,66.30
2024-01-10T21:44:57.811Z,65.70
2024-01-10T21:47:32.681Z,66.40
2024-01-10T21:50:00.883Z,67.80
2024-01-10T21:52:28.486Z,81.70
2024-01-10T21:54:58.549Z,85.80
2024-01-10T21:57:26.024Z,78.43
2024-01-10T21:59:53.623Z,68.53
2024-01-10T22:02:21.429Z,65.90
2024-01-10T22:04:49.005Z,69.80
2024-01-10T22:07:16.277Z,64.33
2024-01-10T22:09:43.780Z,58.80
2024-01-10T22:12:10.912Z,56.00
2024-01-10T22:14:38.393Z,59.50
2024-01-10T22:17:07.210Z,55.07
2024-01-10T22:19:56.217Z,50.37
2024-01-10T22:22:25.052Z,52.17
2024-01-10T22:24:52.473Z,51.83
2024-01-10T22:27:20.428Z,53.90
2024-01-10T22:29:48.325Z,48.93
2024-01-10T22:32:18.967Z,54.10
2024-01-10T22:34:48.213Z,52.07
2024-01-10T22:37:15.332Z,50.77
2024-01-10T22:39:42.770Z,48.63
2024-01-10T22:42:09.924Z,47.70
2024-01-10T22:44:37.351Z,49.80
2024-01-10T22:47:04.985Z,48.37
2024-01-10T22:49:32.453Z,45.63
2024-01-10T22:51:59.582Z,46.47
2024-01-10T22:54:27.093Z,43.27
2024-01-10T22:56:54.265Z,43.70
2024-01-10T22:59:21.905Z,41.50
2024-01-10T23:01:49.059Z,44.60
2024-01-10T23:04:16.564Z,42.83
2024-01-10T23:06:43.788Z,45.50
2024-01-10T23:09:15.923Z,43.83
2024-01-10T23:11:43.509Z,41.27
2024-01-10T23:14:11.159Z,44.27
2024-01-10T23:16:38.407Z,45.93
2024-01-10T23:19:06.164Z,47.20
2024-01-10T23:21:34.161Z,46.73
2024-01-10T23:24:01.737Z,46.77
2024-01-10T23:26:28.931Z,48.07
2024-01-10T23:28:56.437Z,47.40
2024-01-10T23:31:23.853Z,49.30
2024-01-10T23:33:51.401Z,47.73
2024-01-10T23:36:18.627Z,44.93
2024-01-10T23:38:46.089Z,51.57
2024-01-10T23:41:13.915Z,51.37
2024-01-10T23:43:41.451Z,51.93
2024-01-10T23:46:09.342Z,51.33
2024-01-10T23:48:36.991Z,54.00
2024-01-10T23:51:04.693Z,54.20
2024-01-10T23:53:32.189Z,53.40
2024-01-10T23:55:59.477Z,53.77
2024-01-10T23:58:26.996Z,55.20
